createdAt,value
2018-04-10T00:00:20.612Z,95646.52
2018-04-10T00:02:48.851Z,95649.48
2018-04-10T00:05:17.817Z,95648.69
2018-04-10T00:07:47.596Z,95644.05
2018-04-10T00:10:15.910Z,95645.41
2018-04-10T00:12:44.081Z,95642.96
2018-04-10T00:15:12.316Z,95643.87
2018-04-10T00:17:41.252Z,95639.21
2018-04-10T00:20:09.479Z,95643.86
2018-04-10T00:22:37.684Z,95639.66
2018-04-10T00:25:06.918Z,95644.73
2018-04-10T00:27:35.120Z,95637.56
2018-04-10T00:30:06.029Z,95635.05
2018-04-10T00:32:34.329Z,95643.97
2018-04-10T00:35:02.556Z,95635.55
2018-04-10T00:37:31.528Z,95644.41
2018-04-10T00:39:59.717Z,95640.58
2018-04-10T00:42:27.939Z,95647.77
2018-04-10T00:44:57.117Z,95650.75
2018-04-10T00:47:26.162Z,95643.58
2018-04-10T00:49:54.489Z,95639.81
2018-04-10T00:52:24.872Z,95633.94
2018-04-10T00:54:53.233Z,95628.06
2018-04-10T00:57:21.420Z,95636.54
2018-04-10T00:59:49.705Z,95638.67
2018-04-10T01:02:19.951Z,95630.26
2018-04-10T01:04:50.972Z,95631.16
2018-04-10T01:07:20.887Z,95638.84
2018-04-10T01:09:49.888Z,95635.15
2018-04-10T01:12:19.679Z,95630.96
2018-04-10T01:14:47.839Z,95633.56
2018-04-10T01:17:16.069Z,95636.52
2018-04-10T01:19:45.988Z,95632.72
2018-04-10T01:22:14.925Z,95633.98
2018-04-10T01:24:43.122Z,95636.57
2018-04-10T01:27:11.325Z,95636.56
2018-04-10T01:29:41.241Z,95636.16
2018-04-10T01:32:09.415Z,95642.91
2018-04-10T01:34:37.584Z,95645.88
2018-04-10T01:37:05.761Z,95642.92
2018-04-10T01:39:33.931Z,95644.66
2018-04-10T01:42:03.844Z,95648.09
2018-04-10T01:44:32.044Z,95642.61
2018-04-10T01:49:37.288Z,95637.69
2018-04-10T01:52:06.450Z,95645.77
2018-04-10T01:54:34.682Z,95643.67
2018-04-10T01:57:03.672Z,95645.38
2018-04-10T01:59:32.573Z,95656.34
2018-04-10T02:02:00.858Z,95650.84
2018-04-10T02:04:31.674Z,95646.62
2018-04-10T02:06:59.858Z,95647.47
2018-04-10T02:09:45.529Z,95647.03
2018-04-10T02:12:13.712Z,95643.25
2018-04-10T02:14:41.890Z,95638.61
2018-04-10T02:17:10.054Z,95650.44
2018-04-10T02:19:38.311Z,95656.74
2018-04-10T02:22:07.133Z,95645.80
2018-04-10T02:24:38.229Z,95650.52
2018-04-10T02:27:06.443Z,95647.61
2018-04-10T02:29:34.608Z,95650.17
2018-04-10T02:32:02.820Z,95643.91
2018-04-10T02:34:30.995Z,95652.77
2018-04-10T02:36:59.241Z,95651.93
2018-04-10T02:39:29.043Z,95649.86
2018-04-10T02:41:57.983Z,95643.55
2018-04-10T02:44:26.179Z,95641.86
2018-04-10T02:46:54.343Z,95642.30
2018-04-10T02:49:22.525Z,95638.92
2018-04-10T02:51:50.869Z,95628.80
2018-04-10T02:54:19.053Z,95637.63
2018-04-10T02:56:49.729Z,95636.38
2018-04-10T02:59:17.982Z,95638.05
2018-04-10T03:01:46.169Z,95634.69
2018-04-10T03:04:14.359Z,95641.81
2018-04-10T03:06:42.577Z,95639.75
2018-04-10T03:09:10.733Z,95627.95
2018-04-10T03:11:38.951Z,95627.13
2018-04-10T03:14:07.167Z,95623.38
2018-04-10T03:16:35.389Z,95622.57
2018-04-10T03:19:03.556Z,95610.41
2018-04-10T03:21:32.493Z,95611.73
2018-04-10T03:24:02.269Z,95606.27
2018-04-10T03:26:30.578Z,95603.31
2018-04-10T03:28:58.815Z,95607.53
2018-04-10T03:31:27.001Z,95613.02
2018-04-10T03:33:57.583Z,95615.09
2018-04-10T03:36:27.695Z,95608.79
2018-04-10T03:38:56.075Z,95605.43
2018-04-10T03:41:24.561Z,95604.60
2018-04-10T03:43:55.785Z,95602.08
2018-04-10T03:46:24.004Z,95598.69
2018-04-10T03:48:52.237Z,95603.30
2018-04-10T03:51:20.500Z,95602.05
2018-04-10T03:53:48.726Z,95605.40
2018-04-10T03:56:18.674Z,95603.70
2018-04-10T03:58:46.994Z,95602.44
2018-04-10T04:01:15.162Z,95604.14
2018-04-10T04:03:43.369Z,95608.75
2018-04-10T04:06:13.452Z,95609.63
2018-04-10T04:08:41.813Z,95603.30
2018-04-10T04:11:10.172Z,95606.26
2018-04-10T04:13:38.430Z,95600.40
2018-04-10T04:16:09.016Z,95602.94
2018-04-10T04:18:49.165Z,95607.16
2018-04-10T04:21:32.673Z,95619.34
2018-04-10T04:24:01.716Z,95615.55
2018-04-10T04:26:29.988Z,95619.77
2018-04-10T04:28:58.197Z,95613.47
2018-04-10T04:31:26.425Z,95615.99
2018-04-10T04:33:54.626Z,95617.23
2018-04-10T04:36:22.866Z,95612.64
2018-04-10T04:38:52.799Z,95610.09
2018-04-10T04:41:20.983Z,95610.93
2018-04-10T04:43:49.216Z,95609.64
2018-04-10T04:46:17.744Z,95607.95
2018-04-10T04:48:46.026Z,95603.73
2018-04-10T04:51:16.901Z,95606.66
2018-04-10T04:53:46.931Z,95601.59
2018-04-10T04:56:17.066Z,95596.58
2018-04-10T04:58:46.821Z,95595.73
2018-04-10T05:01:14.998Z,95602.45
2018-04-10T05:03:43.260Z,95599.92
2018-04-10T05:06:14.126Z,95597.41
2018-04-10T05:08:42.335Z,95605.03
2018-04-10T05:11:13.567Z,95603.80
2018-04-10T05:13:43.933Z,95618.52
2018-04-10T05:16:19.441Z,95603.77
2018-04-10T05:18:50.273Z,95606.70
2018-04-10T05:21:18.481Z,95608.36
2018-04-10T05:23:47.853Z,95618.91
2018-04-10T05:26:16.797Z,95619.34
2018-04-10T05:28:45.007Z,95625.22
2018-04-10T05:31:13.295Z,95629.84
2018-04-10T05:33:41.545Z,95618.91
2018-04-10T05:36:09.785Z,95611.30
2018-04-10T05:38:40.823Z,95614.62
2018-04-10T05:41:09.017Z,95617.99
2018-04-10T05:43:37.947Z,95615.88
2018-04-10T05:46:09.678Z,95620.88
2018-04-10T05:48:37.904Z,95612.44
2018-04-10T05:51:06.077Z,95600.98
2018-04-10T05:53:34.263Z,95600.56
2018-04-10T05:56:04.242Z,95609.38
2018-04-10T05:58:34.035Z,95607.27
2018-04-10T06:01:02.241Z,95609.38
2018-04-10T06:03:30.413Z,95604.30
2018-04-10T06:06:00.475Z,95595.82
2018-04-10T06:08:28.843Z,95589.50
2018-04-10T06:10:58.664Z,95585.27
2018-04-10T06:13:26.847Z,95589.84
2018-04-10T06:15:55.020Z,95582.62
2018-04-10T06:18:25.896Z,95580.91
2018-04-10T06:20:54.109Z,95579.73
2018-04-10T06:23:22.297Z,95584.73
2018-04-10T06:25:50.460Z,95580.45
2018-04-10T06:28:20.374Z,95579.98
2018-04-10T06:30:48.584Z,95578.66
2018-04-10T06:33:16.796Z,95574.81
2018-04-10T06:35:44.955Z,95582.81
2018-04-10T06:38:13.153Z,95589.08
2018-04-10T06:40:41.333Z,95591.95
2018-04-10T06:43:11.279Z,95601.59
2018-04-10T06:45:39.501Z,95605.72
2018-04-10T06:48:07.735Z,95606.48
2018-04-10T06:50:35.917Z,95608.47
2018-04-10T06:53:04.119Z,95601.61
2018-04-10T06:55:32.397Z,95604.84
2018-04-10T06:58:00.597Z,95602.63
2018-04-10T07:00:28.796Z,95598.72
2018-04-10T07:02:56.997Z,95602.39
2018-04-10T07:05:25.213Z,95610.69
2018-04-10T07:07:54.333Z,95612.32
2018-04-10T07:10:22.659Z,95626.55
2018-04-10T07:12:51.673Z,95623.92
2018-04-10T07:15:19.915Z,95625.94
2018-04-10T07:17:50.017Z,95617.78
2018-04-10T07:20:18.240Z,95618.52
2018-04-10T07:22:47.428Z,95608.63
2018-04-10T07:25:16.329Z,95600.77
2018-04-10T07:27:46.721Z,95600.09
2018-04-10T07:30:15.718Z,95598.52
2018-04-10T07:32:44.005Z,95594.48
2018-04-10T07:35:12.191Z,95593.41
2018-04-10T07:37:40.383Z,95593.54
2018-04-10T07:40:08.575Z,95590.69
2018-04-10T07:42:36.768Z,95593.30
2018-04-10T07:45:04.992Z,95592.52
2018-04-10T07:47:33.188Z,95599.84
2018-04-10T07:50:02.613Z,95598.72
2018-04-10T07:52:32.366Z,95602.69
2018-04-10T07:55:01.723Z,95609.16
2018-04-10T07:57:30.058Z,95614.23
2018-04-10T07:59:59.094Z,95615.67
2018-04-10T08:02:27.356Z,95617.49
2018-04-10T08:04:55.621Z,95609.95
2018-04-10T08:07:25.490Z,95613.81
2018-04-10T08:09:53.737Z,95603.37
2018-04-10T08:12:23.594Z,95597.55
2018-04-10T08:14:51.860Z,95600.34
2018-04-10T08:17:21.667Z,95600.15
2018-04-10T08:19:49.866Z,95594.46
2018-04-10T08:22:18.150Z,95595.02
2018-04-10T08:24:46.339Z,95591.32
2018-04-10T08:27:16.306Z,95594.84
2018-04-10T08:29:44.512Z,95595.06
2018-04-10T08:32:12.754Z,95587.62
2018-04-10T08:34:41.761Z,95590.80
2018-04-10T08:37:12.594Z,95594.76
2018-04-10T08:39:43.777Z,95597.46
2018-04-10T08:42:14.205Z,95598.05
2018-04-10T08:44:43.943Z,95590.77
2018-04-10T08:47:13.213Z,95585.32
2018-04-10T08:49:43.195Z,95584.59
2018-04-10T08:52:11.450Z,95582.82
2018-04-10T08:54:39.776Z,95587.37
2018-04-10T08:57:07.966Z,95581.73
2018-04-10T08:59:36.970Z,95576.45
2018-04-10T09:02:05.143Z,95583.25
2018-04-10T09:04:33.367Z,95579.73
2018-04-10T09:07:01.559Z,95575.17
2018-04-10T09:09:29.789Z,95575.44
2018-04-10T09:11:59.935Z,95589.38
2018-04-10T09:14:28.162Z,95580.80
2018-04-10T09:16:56.361Z,95576.77
2018-04-10T09:19:24.553Z,95573.23
2018-04-10T09:21:52.865Z,95575.98
2018-04-10T09:24:21.111Z,95577.50
2018-04-10T09:26:49.321Z,95579.70
2018-04-10T09:29:19.136Z,95577.52
2018-04-10T09:31:47.456Z,95577.98
2018-04-10T09:34:16.407Z,95578.73
2018-04-10T09:36:44.675Z,95578.75
2018-04-10T09:39:15.477Z,95581.05
2018-04-10T09:41:43.783Z,95578.17
2018-04-10T09:44:12.010Z,95577.33
2018-04-10T09:46:43.536Z,95581.34
2018-04-10T09:49:11.826Z,95584.48
2018-04-10T09:51:41.823Z,95583.97
2018-04-10T09:54:10.057Z,95582.27
2018-04-10T09:56:38.259Z,95578.97
2018-04-10T09:59:07.252Z,95586.67
2018-04-10T10:01:36.738Z,95584.33
2018-04-10T10:04:07.616Z,95587.61
2018-04-10T10:06:40.606Z,95590.56
2018-04-10T10:09:09.675Z,95587.93
2018-04-10T10:11:37.906Z,95590.92
2018-04-10T10:14:06.120Z,95598.17
2018-04-10T10:16:34.504Z,95594.76
2018-04-10T10:19:05.356Z,95595.37
2018-04-10T10:21:33.646Z,95592.17
2018-04-10T10:24:01.885Z,95591.33
2018-04-10T10:26:31.894Z,95594.23
2018-04-10T10:29:00.097Z,95590.33
2018-04-10T10:31:28.348Z,95586.23
2018-04-10T10:33:59.191Z,95590.16
2018-04-10T10:36:28.453Z,95597.58
2018-04-10T10:38:58.436Z,95590.95
2018-04-10T10:41:28.315Z,95597.30
2018-04-10T10:43:56.567Z,95597.97
2018-04-10T10:46:24.857Z,95594.77
2018-04-10T10:48:53.144Z,95599.02
2018-04-10T10:51:21.370Z,95602.16
2018-04-10T10:53:50.159Z,95600.86
2018-04-10T10:56:18.523Z,95604.66
2018-04-10T10:58:46.801Z,95602.81
2018-04-10T11:01:17.797Z,95602.28
2018-04-10T11:03:46.796Z,95600.14
2018-04-10T11:06:15.022Z,95600.80
2018-04-10T11:08:43.976Z,95596.19
2018-04-10T11:11:12.172Z,95601.16
2018-04-10T11:13:40.366Z,95599.02
2018-04-10T11:16:08.667Z,95601.04
2018-04-10T11:18:37.306Z,95595.70
2018-04-10T11:21:06.412Z,95594.73
2018-04-10T11:23:34.610Z,95588.24
2018-04-10T11:26:02.835Z,95586.98
2018-04-10T11:28:31.145Z,95584.26
2018-04-10T11:30:59.627Z,95582.55
2018-04-10T11:33:27.889Z,95586.82
2018-04-10T11:35:56.087Z,95580.63
2018-04-10T11:38:24.448Z,95588.70
2018-04-10T11:40:52.778Z,95581.47
2018-04-10T11:43:21.086Z,95582.75
2018-04-10T11:45:49.329Z,95580.92
2018-04-10T11:48:17.542Z,95580.73
2018-04-10T11:50:45.799Z,95582.48
2018-04-10T11:53:14.059Z,95583.11
2018-04-10T11:55:42.289Z,95575.00
2018-04-10T11:58:11.328Z,95563.06
2018-04-10T12:00:40.030Z,95566.19
2018-04-10T12:03:10.158Z,95549.31
2018-04-10T12:05:38.463Z,95544.95
2018-04-10T12:08:07.736Z,95545.89
2018-04-10T12:10:37.769Z,95546.25
2018-04-10T12:13:06.017Z,95559.51
2018-04-10T12:15:34.284Z,95573.78
2018-04-10T12:18:03.540Z,95586.10
2018-04-10T12:20:31.755Z,95584.77
2018-04-10T12:23:00.021Z,95595.34
2018-04-10T12:25:28.231Z,95592.81
2018-04-10T12:27:59.005Z,95591.79
2018-04-10T12:30:27.197Z,95597.81
2018-04-10T12:32:55.527Z,95587.72
2018-04-10T12:35:24.494Z,95586.66
2018-04-10T12:37:52.805Z,95580.71
2018-04-10T12:40:21.040Z,95578.19
2018-04-10T12:42:54.277Z,95583.58
2018-04-10T12:45:23.457Z,95580.23
2018-04-10T12:47:51.681Z,95568.72
2018-04-10T12:50:19.903Z,95565.45
2018-04-10T12:52:48.280Z,95550.23
2018-04-10T12:55:16.565Z,95555.01
2018-04-10T12:57:44.798Z,95558.70
2018-04-10T13:00:13.109Z,95561.06
2018-04-10T13:02:41.423Z,95562.11
2018-04-10T13:05:09.794Z,95559.38
2018-04-10T13:07:38.100Z,95562.59
2018-04-10T13:10:06.309Z,95565.38
2018-04-10T13:12:36.268Z,95562.16
2018-04-10T13:15:04.552Z,95552.41
2018-04-10T13:17:32.778Z,95550.39
2018-04-10T13:20:00.966Z,95548.31
2018-04-10T13:22:29.276Z,95548.27
2018-04-10T13:24:57.629Z,95548.76
2018-04-10T13:27:26.707Z,95544.84
2018-04-10T13:29:58.737Z,95537.33
2018-04-10T13:32:27.010Z,95528.06
2018-04-10T13:34:55.232Z,95529.75
2018-04-10T13:37:23.467Z,95534.33
2018-04-10T13:39:51.775Z,95535.38
2018-04-10T13:42:22.608Z,95533.87
2018-04-10T13:44:50.856Z,95536.16
2018-04-10T13:47:20.819Z,95537.48
2018-04-10T13:52:23.527Z,95519.08
2018-04-10T13:54:53.524Z,95521.58
2018-04-10T13:57:24.347Z,95521.53
2018-04-10T13:59:55.803Z,95527.49
2018-04-10T14:02:24.044Z,95515.59
2018-04-10T14:04:53.992Z,95514.83
2018-04-10T14:07:22.244Z,95513.00
2018-04-10T14:09:50.515Z,95517.56
2018-04-10T14:12:20.416Z,95510.84
2018-04-10T14:14:51.248Z,95507.70
2018-04-10T14:17:20.239Z,95513.69
2018-04-10T14:19:50.491Z,95517.30
2018-04-10T14:22:20.417Z,95512.99
2018-04-10T14:24:51.535Z,95508.97
2018-04-10T14:27:21.603Z,95510.84
2018-04-10T14:29:49.981Z,95504.73
2018-04-10T14:32:18.327Z,95501.71
2018-04-10T14:34:47.733Z,95499.69
2018-04-10T14:37:15.930Z,95501.44
2018-04-10T14:39:45.834Z,95491.19
2018-04-10T14:42:14.054Z,95498.59
2018-04-10T14:44:43.064Z,95501.55
2018-04-10T14:47:13.884Z,95501.61
2018-04-10T14:49:43.028Z,95497.16
2018-04-10T14:52:11.319Z,95498.99
2018-04-10T14:54:39.681Z,95500.31
2018-04-10T14:57:07.953Z,95494.77
2018-04-10T14:59:36.279Z,95493.62
2018-04-10T15:02:06.265Z,95494.30
2018-04-10T15:04:35.238Z,95490.79
2018-04-10T15:07:03.469Z,95496.06
2018-04-10T15:09:32.961Z,95492.89
2018-04-10T15:12:01.250Z,95514.59
2018-04-10T15:14:31.155Z,95495.27
2018-04-10T15:16:59.381Z,95495.39
2018-04-10T15:19:28.493Z,95495.36
2018-04-10T15:21:56.806Z,95499.14
2018-04-10T15:24:25.027Z,95499.39
2018-04-10T15:26:53.252Z,95503.05
2018-04-10T15:29:21.502Z,95499.53
2018-04-10T15:31:51.483Z,95501.83
2018-04-10T15:34:19.709Z,95506.34
2018-04-10T15:36:49.948Z,95499.81
2018-04-10T15:39:19.819Z,95497.16
2018-04-10T15:41:49.789Z,95497.62
2018-04-10T15:44:17.997Z,95495.75
2018-04-10T15:46:46.253Z,95505.30
2018-04-10T15:49:14.501Z,95507.19
2018-04-10T15:51:44.360Z,95505.72
2018-04-10T15:54:15.225Z,95506.78
2018-04-10T15:56:49.013Z,95511.92
2018-04-10T15:59:17.230Z,95510.66
2018-04-10T16:01:47.046Z,95511.58
2018-04-10T16:04:15.244Z,95515.08
2018-04-10T16:06:43.595Z,95511.75
2018-04-10T16:09:11.817Z,95509.81
2018-04-10T16:11:40.092Z,95512.13
2018-04-10T16:14:08.350Z,95508.85
2018-04-10T16:16:36.537Z,95506.09
2018-04-10T16:19:05.041Z,95502.39
2018-04-10T16:21:33.280Z,95499.97
2018-04-10T16:24:03.239Z,95504.27
2018-04-10T16:26:32.173Z,95506.25
2018-04-10T16:29:01.167Z,95508.91
2018-04-10T16:31:30.587Z,95507.34
2018-04-10T16:34:01.106Z,95505.44
2018-04-10T16:36:31.068Z,95503.88
2018-04-10T16:38:59.446Z,95498.95
2018-04-10T16:41:27.921Z,95499.90
2018-04-10T16:43:56.192Z,95494.08
2018-04-10T16:46:24.448Z,95496.41
2018-04-10T16:48:52.717Z,95498.72
2018-04-10T16:51:20.920Z,95493.43
2018-04-10T16:53:49.848Z,95499.53
2018-04-10T16:56:18.082Z,95497.17
2018-04-10T16:58:47.256Z,95498.24
2018-04-10T17:01:15.588Z,95497.98
2018-04-10T17:03:45.548Z,95499.48
2018-04-10T17:06:13.885Z,95496.69
2018-04-10T17:08:44.793Z,95492.20
2018-04-10T17:11:14.950Z,95489.99
2018-04-10T17:13:43.695Z,95490.25
2018-04-10T17:18:52.081Z,95491.17
2018-04-10T17:21:23.361Z,95485.88
2018-04-10T17:23:55.841Z,95481.87
2018-04-10T17:26:24.219Z,95487.63
2018-04-10T17:28:55.352Z,95488.69
2018-04-10T17:31:27.626Z,95491.52
2018-04-10T17:33:59.287Z,95493.02
2018-04-10T17:36:29.167Z,95497.96
2018-04-10T17:38:57.445Z,95508.89
2018-04-10T17:41:25.686Z,95511.27
2018-04-10T17:43:54.023Z,95509.77
2018-04-10T17:46:22.645Z,95511.72
2018-04-10T17:48:52.042Z,95512.33
2018-04-10T17:51:22.056Z,95519.34
2018-04-10T17:53:50.292Z,95521.67
2018-04-10T17:56:19.786Z,95523.17
2018-04-10T17:58:48.268Z,95534.44
2018-04-10T18:01:16.494Z,95521.83
2018-04-10T18:03:44.729Z,95530.06
2018-04-10T18:06:13.053Z,95531.58
2018-04-10T18:08:41.293Z,95541.55
2018-04-10T18:11:09.607Z,95543.05
2018-04-10T18:13:39.684Z,95547.42
2018-04-10T18:16:07.965Z,95555.67
2018-04-10T18:18:37.925Z,95559.27
2018-04-10T18:21:07.394Z,95565.35
2018-04-10T18:23:35.798Z,95571.48
2018-04-10T18:26:04.873Z,95576.28
2018-04-10T18:28:33.252Z,95573.84
2018-04-10T18:31:03.430Z,95576.92
2018-04-10T18:33:32.493Z,95582.89
2018-04-10T18:36:01.077Z,95587.63
2018-04-10T18:38:29.661Z,95586.02
2018-04-10T18:40:58.008Z,95589.48
2018-04-10T18:43:27.161Z,95597.25
2018-04-10T18:45:55.540Z,95594.33
2018-04-10T18:48:23.816Z,95608.84
2018-04-10T18:50:52.320Z,95598.68
2018-04-10T18:53:20.763Z,95591.98
2018-04-10T18:55:49.142Z,95591.70
2018-04-10T18:58:17.429Z,95597.81
2018-04-10T19:00:46.018Z,95591.59
2018-04-10T19:03:14.239Z,95598.50
2018-04-10T19:05:46.454Z,95590.46
2018-04-10T19:08:14.881Z,95599.03
2018-04-10T19:10:43.320Z,95593.17
2018-04-10T19:13:11.619Z,95594.92
2018-04-10T19:15:41.729Z,95600.97
2018-04-10T19:20:44.409Z,95594.79
2018-04-10T19:23:13.170Z,95603.25
2018-04-10T19:25:42.426Z,95610.11
2018-04-10T19:28:10.913Z,95612.72
2018-04-10T19:30:39.394Z,95618.34
2018-04-10T19:33:08.397Z,95620.94
2018-04-10T19:35:39.290Z,95620.13
2018-04-10T19:38:07.570Z,95629.58
2018-04-10T19:40:37.547Z,95632.56
2018-04-10T19:43:05.857Z,95626.66
2018-04-10T19:45:36.623Z,95627.56
2018-04-10T19:48:05.136Z,95633.14
2018-04-10T19:50:33.516Z,95639.13
2018-04-10T19:53:01.867Z,95647.67
2018-04-10T19:55:30.333Z,95662.99
2018-04-10T19:57:58.767Z,95682.64
2018-04-10T20:00:27.066Z,95689.33
2018-04-10T20:02:55.686Z,95697.88
2018-04-10T20:05:24.783Z,95707.23
2018-04-10T20:07:54.704Z,95709.79
2018-04-10T20:10:22.935Z,95710.59
2018-04-10T20:12:52.134Z,95705.06
2018-04-10T20:15:20.373Z,95715.61
2018-04-10T20:17:51.205Z,95708.77
2018-04-10T20:20:19.547Z,95721.80
2018-04-10T20:22:47.795Z,95728.85
2018-04-10T20:25:16.070Z,95727.92
2018-04-10T20:27:47.903Z,95725.79
2018-04-10T20:30:16.101Z,95734.25
2018-04-10T20:32:49.394Z,95742.89
2018-04-10T20:35:17.836Z,95747.19
2018-04-10T20:37:46.104Z,95746.80
2018-04-10T20:40:14.478Z,95746.51
2018-04-10T20:42:43.233Z,95742.39
2018-04-10T20:45:14.660Z,95740.05
2018-04-10T20:47:50.441Z,95739.79
2018-04-10T20:50:18.919Z,95738.22
2018-04-10T20:52:47.326Z,95744.71
2018-04-10T20:55:15.849Z,95746.73
2018-04-10T20:57:44.134Z,95748.70
2018-04-10T21:00:14.114Z,95746.35
2018-04-10T21:02:42.388Z,95740.31
2018-04-10T21:05:13.269Z,95735.02
2018-04-10T21:07:42.258Z,95739.87
2018-04-10T21:10:11.566Z,95748.11
2018-04-10T21:12:39.848Z,95749.48
2018-04-10T21:15:08.112Z,95752.17
2018-04-10T21:17:36.519Z,95767.94
2018-04-10T21:20:04.795Z,95771.45
2018-04-10T21:22:32.982Z,95763.53
2018-04-10T21:25:01.973Z,95762.81
2018-04-10T21:27:30.210Z,95767.60
2018-04-10T21:29:58.442Z,95761.69
2018-04-10T21:32:28.431Z,95762.66
2018-04-10T21:34:56.613Z,95764.33
2018-04-10T21:37:24.844Z,95763.52
2018-04-10T21:39:53.052Z,95774.59
2018-04-10T21:42:21.391Z,95784.38
2018-04-10T21:44:49.583Z,95789.47
2018-04-10T21:47:18.531Z,95796.22
2018-04-10T21:49:46.735Z,95795.06
2018-04-10T21:52:14.915Z,95798.48
2018-04-10T21:54:43.885Z,95795.63
2018-04-10T21:57:12.167Z,95801.14
2018-04-10T21:59:40.366Z,95804.91
2018-04-10T22:02:08.585Z,95815.92
2018-04-10T22:04:36.817Z,95813.44
2018-04-10T22:07:05.031Z,95814.73
2018-04-10T22:09:33.174Z,95816.42
2018-04-10T22:12:02.199Z,95821.09
2018-04-10T22:14:30.351Z,95817.76
2018-04-10T22:16:58.539Z,95824.53
2018-04-10T22:19:39.233Z,95830.87
2018-04-10T22:22:07.391Z,95834.69
2018-04-10T22:24:35.535Z,95836.80
2018-04-10T22:27:03.730Z,95846.53
2018-04-10T22:29:31.872Z,95851.59
2018-04-10T22:32:00.123Z,95852.41
2018-04-10T22:34:28.272Z,95856.22
2018-04-10T22:36:56.441Z,95855.77
2018-04-10T22:39:24.654Z,95857.09
2018-04-10T22:41:52.797Z,95858.38
2018-04-10T22:44:20.955Z,95853.23
2018-04-10T22:46:49.105Z,95861.34
2018-04-10T22:49:17.295Z,95870.23
2018-04-10T22:51:45.481Z,95882.19
2018-04-10T22:54:13.631Z,95895.38
2018-04-10T22:56:41.787Z,95902.65
2018-04-10T22:59:09.938Z,95914.56
2018-04-10T23:01:38.143Z,95915.48
2018-04-10T23:04:07.005Z,95907.05
2018-04-10T23:06:35.188Z,95908.33
2018-04-10T23:09:03.343Z,95909.22
2018-04-10T23:11:31.507Z,95904.60
2018-04-10T23:13:59.693Z,95913.13
2018-04-10T23:16:27.845Z,95911.01
2018-04-10T23:18:56.009Z,95913.53
2018-04-10T23:21:31.153Z,95917.36
2018-04-10T23:23:59.313Z,95905.50
2018-04-10T23:26:27.481Z,95914.80
2018-04-10T23:28:55.664Z,95915.22
2018-04-10T23:31:23.848Z,95915.68
2018-04-10T23:33:52.002Z,95914.91
2018-04-10T23:36:20.224Z,95926.34
2018-04-10T23:38:48.448Z,95931.87
2018-04-10T23:41:16.686Z,95934.41
2018-04-10T23:43:45.029Z,95936.13
2018-04-10T23:46:13.250Z,95928.12
2018-04-10T23:48:41.401Z,95923.45
2018-04-10T23:51:09.553Z,95927.26
2018-04-10T23:53:38.483Z,95927.25
2018-04-10T23:56:06.669Z,95929.85
2018-04-10T23:58:34.829Z,95940.92
